sensor_id;sensor_type;location;lat;lon;timestamp;pressure;altitude;pressure_sealevel;temperature;humidity
64230;BME280;50547;49.498;0.092;2023-09-19T00:00:21;1057.50;;;18.07;77.56
64230;BME280;50547;49.498;0.092;2023-09-19T00:02:52;1057.47;;;18.06;77.76
64230;BME280;50547;49.498;0.092;2023-09-19T00:05:22;1057.47;;;18.06;76.82
64230;BME280;50547;49.498;0.092;2023-09-19T00:07:47;1057.47;;;18.06;77.30
64230;BME280;50547;49.498;0.092;2023-09-19T00:10:16;1057.50;;;18.07;77.09
64230;BME280;50547;49.498;0.092;2023-09-19T00:12:46;1057.50;;;18.07;75.63
64230;BME280;50547;49.498;0.092;2023-09-19T00:15:15;1057.50;;;18.07;76.72
64230;BME280;50547;49.498;0.092;2023-09-19T00:17:44;1057.47;;;18.06;77.21
64230;BME280;50547;49.498;0.092;2023-09-19T00:20:13;1057.47;;;18.05;77.07
64230;BME280;50547;49.498;0.092;2023-09-19T00:22:43;1057.41;;;18.04;78.21
64230;BME280;50547;49.498;0.092;2023-09-19T00:25:12;1057.41;;;18.04;78.36
64230;BME280;50547;49.498;0.092;2023-09-19T00:27:41;1057.38;;;18.02;78.86
64230;BME280;50547;49.498;0.092;2023-09-19T00:30:12;1057.38;;;18.02;79.48
64230;BME280;50547;49.498;0.092;2023-09-19T00:32:42;1057.38;;;18.01;78.08
64230;BME280;50547;49.498;0.092;2023-09-19T00:35:11;1057.36;;;18.00;78.81
64230;BME280;50547;49.498;0.092;2023-09-19T00:37:40;1057.33;;;17.97;79.46
64230;BME280;50547;49.498;0.092;2023-09-19T00:40:10;1057.30;;;17.96;78.20
64230;BME280;50547;49.498;0.092;2023-09-19T00:42:40;1057.27;;;17.94;79.61
64230;BME280;50547;49.498;0.092;2023-09-19T00:45:10;1057.20;;;17.90;78.99
64230;BME280;50547;49.498;0.092;2023-09-19T00:47:40;1057.05;;;17.82;79.16
64230;BME280;50547;49.498;0.092;2023-09-19T00:50:10;1056.99;;;17.78;79.58
64230;BME280;50547;49.498;0.092;2023-09-19T00:52:42;1056.86;;;17.75;80.11
64230;BME280;50547;49.498;0.092;2023-09-19T00:55:12;1056.82;;;17.73;79.94
64230;BME280;50547;49.498;0.092;2023-09-19T00:57:43;1056.76;;;17.69;80.11
64230;BME280;50547;49.498;0.092;2023-09-19T01:00:13;1056.74;;;17.66;79.51
64230;BME280;50547;49.498;0.092;2023-09-19T01:02:42;1056.62;;;17.61;78.92
64230;BME280;50547;49.498;0.092;2023-09-19T01:05:12;1056.62;;;17.60;79.77
64230;BME280;50547;49.498;0.092;2023-09-19T01:07:42;1056.59;;;17.59;80.56
64230;BME280;50547;49.498;0.092;2023-09-19T01:10:12;1056.53;;;17.56;80.15
64230;BME280;50547;49.498;0.092;2023-09-19T01:12:51;1056.43;;;17.50;80.25
64230;BME280;50547;49.498;0.092;2023-09-19T01:15:38;1056.40;;;17.48;80.63
64230;BME280;50547;49.498;0.092;2023-09-19T01:18:16;1056.34;;;17.43;80.33
64230;BME280;50547;49.498;0.092;2023-09-19T01:20:56;1056.26;;;17.39;81.47
64230;BME280;50547;49.498;0.092;2023-09-19T01:23:39;1056.20;;;17.36;80.68
64230;BME280;50547;49.498;0.092;2023-09-19T01:26:21;1056.17;;;17.33;81.52
64230;BME280;50547;49.498;0.092;2023-09-19T01:29:13;1056.13;;;17.31;81.41
64230;BME280;50547;49.498;0.092;2023-09-19T01:31:47;1056.10;;;17.29;81.43
64230;BME280;50547;49.498;0.092;2023-09-19T01:34:18;1056.07;;;17.28;81.47
64230;BME280;50547;49.498;0.092;2023-09-19T01:36:47;1056.04;;;17.25;81.28
64230;BME280;50547;49.498;0.092;2023-09-19T01:39:16;1056.01;;;17.23;81.83
64230;BME280;50547;49.498;0.092;2023-09-19T01:41:54;1055.95;;;17.21;81.79
64230;BME280;50547;49.498;0.092;2023-09-19T01:44:29;1055.89;;;17.19;81.60
64230;BME280;50547;49.498;0.092;2023-09-19T01:47:04;1055.89;;;17.17;81.58
64230;BME280;50547;49.498;0.092;2023-09-19T01:49:42;1055.81;;;17.13;81.35
64230;BME280;50547;49.498;0.092;2023-09-19T01:52:13;1055.77;;;17.11;81.79
64230;BME280;50547;49.498;0.092;2023-09-19T01:54:48;1055.74;;;17.08;81.59
64230;BME280;50547;49.498;0.092;2023-09-19T01:57:26;1055.74;;;17.08;82.06
64230;BME280;50547;49.498;0.092;2023-09-19T02:00:01;1055.71;;;17.07;81.85
64230;BME280;50547;49.498;0.092;2023-09-19T02:02:30;1055.71;;;17.06;82.10
64230;BME280;50547;49.498;0.092;2023-09-19T02:04:59;1055.68;;;17.05;82.34
64230;BME280;50547;49.498;0.092;2023-09-19T02:07:28;1055.68;;;17.04;81.68
64230;BME280;50547;49.498;0.092;2023-09-19T02:09:58;1055.65;;;17.03;82.40
64230;BME280;50547;49.498;0.092;2023-09-19T02:12:27;1055.65;;;17.03;82.95
64230;BME280;50547;49.498;0.092;2023-09-19T02:14:56;1055.62;;;17.00;83.14
64230;BME280;50547;49.498;0.092;2023-09-19T02:17:25;1055.59;;;16.99;83.23
64230;BME280;50547;49.498;0.092;2023-09-19T02:19:55;1055.50;;;16.96;82.76
64230;BME280;50547;49.498;0.092;2023-09-19T02:22:24;1055.47;;;16.94;82.55
64230;BME280;50547;49.498;0.092;2023-09-19T02:24:53;1055.43;;;16.91;82.94
64230;BME280;50547;49.498;0.092;2023-09-19T02:27:23;1055.43;;;16.91;83.53
64230;BME280;50547;49.498;0.092;2023-09-19T02:29:52;1055.41;;;16.90;83.62
64230;BME280;50547;49.498;0.092;2023-09-19T02:32:21;1055.41;;;16.90;83.87
64230;BME280;50547;49.498;0.092;2023-09-19T02:34:50;1055.38;;;16.87;83.64
64230;BME280;50547;49.498;0.092;2023-09-19T02:37:19;1055.35;;;16.85;83.36
64230;BME280;50547;49.498;0.092;2023-09-19T02:39:49;1055.32;;;16.84;83.89
64230;BME280;50547;49.498;0.092;2023-09-19T02:42:18;1055.32;;;16.83;83.43
64230;BME280;50547;49.498;0.092;2023-09-19T02:44:47;1055.29;;;16.81;83.88
64230;BME280;50547;49.498;0.092;2023-09-19T02:47:16;1055.29;;;16.81;84.14
64230;BME280;50547;49.498;0.092;2023-09-19T02:49:45;1055.29;;;16.81;83.77
64230;BME280;50547;49.498;0.092;2023-09-19T02:52:14;1055.26;;;16.80;83.51
64230;BME280;50547;49.498;0.092;2023-09-19T02:54:44;1055.29;;;16.82;83.80
64230;BME280;50547;49.498;0.092;2023-09-19T02:57:13;1055.29;;;16.82;83.49
64230;BME280;50547;49.498;0.092;2023-09-19T02:59:42;1055.29;;;16.82;83.13
64230;BME280;50547;49.498;0.092;2023-09-19T03:02:11;1055.29;;;16.82;83.68
64230;BME280;50547;49.498;0.092;2023-09-19T03:04:37;1055.29;;;16.81;83.30
64230;BME280;50547;49.498;0.092;2023-09-19T03:07:07;1055.29;;;16.82;84.12
64230;BME280;50547;49.498;0.092;2023-09-19T03:09:36;1055.32;;;16.83;83.63
64230;BME280;50547;49.498;0.092;2023-09-19T03:12:06;1055.29;;;16.82;83.83
64230;BME280;50547;49.498;0.092;2023-09-19T03:14:35;1055.29;;;16.81;83.73
64230;BME280;50547;49.498;0.092;2023-09-19T03:17:04;1055.26;;;16.80;83.41
64230;BME280;50547;49.498;0.092;2023-09-19T03:19:33;1055.26;;;16.80;84.47
64230;BME280;50547;49.498;0.092;2023-09-19T03:22:02;1055.26;;;16.79;83.92
64230;BME280;50547;49.498;0.092;2023-09-19T03:24:32;1055.26;;;16.79;84.21
64230;BME280;50547;49.498;0.092;2023-09-19T03:27:01;1055.23;;;16.78;83.98
64230;BME280;50547;49.498;0.092;2023-09-19T03:29:30;1055.23;;;16.77;83.69
64230;BME280;50547;49.498;0.092;2023-09-19T03:31:59;1055.17;;;16.75;84.22
64230;BME280;50547;49.498;0.092;2023-09-19T03:34:28;1055.14;;;16.74;84.40
64230;BME280;50547;49.498;0.092;2023-09-19T03:36:58;1055.10;;;16.72;84.24
64230;BME280;50547;49.498;0.092;2023-09-19T03:39:27;1055.07;;;16.70;83.69
64230;BME280;50547;49.498;0.092;2023-09-19T03:41:56;1055.04;;;16.68;83.99
64230;BME280;50547;49.498;0.092;2023-09-19T03:44:25;1055.04;;;16.68;84.09
64230;BME280;50547;49.498;0.092;2023-09-19T03:46:54;1055.04;;;16.68;84.14
64230;BME280;50547;49.498;0.092;2023-09-19T03:49:23;1055.07;;;16.69;83.82
64230;BME280;50547;49.498;0.092;2023-09-19T03:51:52;1055.07;;;16.70;83.72
64230;BME280;50547;49.498;0.092;2023-09-19T03:54:22;1055.08;;;16.70;83.85
64230;BME280;50547;49.498;0.092;2023-09-19T03:56:51;1055.10;;;16.72;83.72
64230;BME280;50547;49.498;0.092;2023-09-19T03:59:20;1055.11;;;16.72;84.06
64230;BME280;50547;49.498;0.092;2023-09-19T04:01:49;1055.14;;;16.74;84.01
64230;BME280;50547;49.498;0.092;2023-09-19T04:04:18;1055.17;;;16.75;83.68
64230;BME280;50547;49.498;0.092;2023-09-19T04:06:47;1055.23;;;16.78;84.04
64230;BME280;50547;49.498;0.092;2023-09-19T04:09:16;1055.29;;;16.81;84.01
64230;BME280;50547;49.498;0.092;2023-09-19T04:11:45;1055.32;;;16.84;83.35
64230;BME280;50547;49.498;0.092;2023-09-19T04:14:14;1055.35;;;16.85;83.19
64230;BME280;50547;49.498;0.092;2023-09-19T04:16:43;1055.38;;;16.88;83.76
64230;BME280;50547;49.498;0.092;2023-09-19T04:19:13;1055.41;;;16.90;83.27
64230;BME280;50547;49.498;0.092;2023-09-19T04:21:42;1055.47;;;16.93;83.44
64230;BME280;50547;49.498;0.092;2023-09-19T04:24:11;1055.47;;;16.94;83.15
64230;BME280;50547;49.498;0.092;2023-09-19T04:26:40;1055.50;;;16.95;83.78
64230;BME280;50547;49.498;0.092;2023-09-19T04:29:09;1055.53;;;16.98;82.83
64230;BME280;50547;49.498;0.092;2023-09-19T04:31:38;1055.59;;;16.99;82.82
64230;BME280;50547;49.498;0.092;2023-09-19T04:34:07;1055.62;;;17.00;83.18
64230;BME280;50547;49.498;0.092;2023-09-19T04:36:36;1055.59;;;16.98;82.79
64230;BME280;50547;49.498;0.092;2023-09-19T04:39:05;1055.59;;;16.98;83.08
64230;BME280;50547;49.498;0.092;2023-09-19T04:41:34;1055.62;;;17.00;83.85
64230;BME280;50547;49.498;0.092;2023-09-19T04:44:04;1055.65;;;17.02;83.94
64230;BME280;50547;49.498;0.092;2023-09-19T04:46:33;1055.62;;;17.02;83.30
64230;BME280;50547;49.498;0.092;2023-09-19T04:49:03;1055.65;;;17.03;84.13
64230;BME280;50547;49.498;0.092;2023-09-19T04:51:32;1055.65;;;17.03;83.01
64230;BME280;50547;49.498;0.092;2023-09-19T04:53:59;1055.62;;;17.01;83.39
64230;BME280;50547;49.498;0.092;2023-09-19T04:56:28;1055.62;;;17.01;83.48
64230;BME280;50547;49.498;0.092;2023-09-19T04:58:57;1055.62;;;17.01;83.24
64230;BME280;50547;49.498;0.092;2023-09-19T05:01:26;1055.62;;;17.01;83.78
64230;BME280;50547;49.498;0.092;2023-09-19T05:03:56;1055.62;;;17.01;83.42
64230;BME280;50547;49.498;0.092;2023-09-19T05:06:25;1055.62;;;17.00;83.47
64230;BME280;50547;49.498;0.092;2023-09-19T05:08:54;1055.53;;;16.98;83.21
64230;BME280;50547;49.498;0.092;2023-09-19T05:11:23;1055.53;;;16.96;83.20
64230;BME280;50547;49.498;0.092;2023-09-19T05:13:50;1055.47;;;16.93;83.20
64230;BME280;50547;49.498;0.092;2023-09-19T05:16:19;1055.43;;;16.92;83.30
64230;BME280;50547;49.498;0.092;2023-09-19T05:18:48;1055.41;;;16.90;83.18
64230;BME280;50547;49.498;0.092;2023-09-19T05:21:17;1055.41;;;16.89;84.08
64230;BME280;50547;49.498;0.092;2023-09-19T05:23:46;1055.41;;;16.89;83.65
64230;BME280;50547;49.498;0.092;2023-09-19T05:26:15;1055.41;;;16.89;83.60
64230;BME280;50547;49.498;0.092;2023-09-19T05:28:45;1055.41;;;16.89;83.76
64230;BME280;50547;49.498;0.092;2023-09-19T05:31:14;1055.38;;;16.88;83.90
64230;BME280;50547;49.498;0.092;2023-09-19T05:33:43;1055.35;;;16.86;84.01
64230;BME280;50547;49.498;0.092;2023-09-19T05:36:12;1055.35;;;16.85;84.04
64230;BME280;50547;49.498;0.092;2023-09-19T05:38:41;1055.35;;;16.85;84.38
64230;BME280;50547;49.498;0.092;2023-09-19T05:41:10;1055.32;;;16.84;84.05
64230;BME280;50547;49.498;0.092;2023-09-19T05:43:39;1055.32;;;16.83;84.09
64230;BME280;50547;49.498;0.092;2023-09-19T05:46:09;1055.32;;;16.83;83.85
64230;BME280;50547;49.498;0.092;2023-09-19T05:48:38;1055.29;;;16.82;83.85
64230;BME280;50547;49.498;0.092;2023-09-19T05:51:07;1055.29;;;16.81;84.07
64230;BME280;50547;49.498;0.092;2023-09-19T05:53:36;1055.29;;;16.81;83.69
64230;BME280;50547;49.498;0.092;2023-09-19T05:56:05;1055.29;;;16.81;83.88
64230;BME280;50547;49.498;0.092;2023-09-19T05:58:34;1055.29;;;16.81;83.77
64230;BME280;50547;49.498;0.092;2023-09-19T06:01:03;1055.29;;;16.81;84.27
64230;BME280;50547;49.498;0.092;2023-09-19T06:03:32;1055.26;;;16.79;84.56
64230;BME280;50547;49.498;0.092;2023-09-19T06:06:02;1055.23;;;16.78;83.70
64230;BME280;50547;49.498;0.092;2023-09-19T06:08:31;1055.26;;;16.79;84.10
64230;BME280;50547;49.498;0.092;2023-09-19T06:11:00;1055.17;;;16.76;83.31
64230;BME280;50547;49.498;0.092;2023-09-19T06:13:29;1055.14;;;16.74;83.64
64230;BME280;50547;49.498;0.092;2023-09-19T06:15:58;1055.14;;;16.74;83.97
64230;BME280;50547;49.498;0.092;2023-09-19T06:18:27;1055.14;;;16.74;83.68
64230;BME280;50547;49.498;0.092;2023-09-19T06:20:57;1055.14;;;16.74;83.36
64230;BME280;50547;49.498;0.092;2023-09-19T06:23:26;1055.17;;;16.75;83.57
64230;BME280;50547;49.498;0.092;2023-09-19T06:25:55;1055.17;;;16.76;83.36
64230;BME280;50547;49.498;0.092;2023-09-19T06:28:24;1055.23;;;16.77;83.41
64230;BME280;50547;49.498;0.092;2023-09-19T06:30:53;1055.23;;;16.78;82.93
64230;BME280;50547;49.498;0.092;2023-09-19T06:33:23;1055.26;;;16.80;82.85
64230;BME280;50547;49.498;0.092;2023-09-19T06:35:52;1055.29;;;16.82;82.76
64230;BME280;50547;49.498;0.092;2023-09-19T06:38:21;1055.35;;;16.85;83.26
64230;BME280;50547;49.498;0.092;2023-09-19T06:40:51;1055.35;;;16.86;82.74
64230;BME280;50547;49.498;0.092;2023-09-19T06:43:20;1055.38;;;16.87;82.76
64230;BME280;50547;49.498;0.092;2023-09-19T06:45:49;1055.41;;;16.89;82.33
64230;BME280;50547;49.498;0.092;2023-09-19T06:48:18;1055.41;;;16.90;81.42
64230;BME280;50547;49.498;0.092;2023-09-19T06:50:47;1055.43;;;16.91;82.02
64230;BME280;50547;49.498;0.092;2023-09-19T06:53:16;1055.47;;;16.93;82.08
64230;BME280;50547;49.498;0.092;2023-09-19T06:55:45;1055.50;;;16.95;82.28
64230;BME280;50547;49.498;0.092;2023-09-19T06:58:14;1055.53;;;16.98;81.69
64230;BME280;50547;49.498;0.092;2023-09-19T07:00:43;1055.59;;;16.99;81.80
64230;BME280;50547;49.498;0.092;2023-09-19T07:03:13;1055.62;;;17.00;82.82
64230;BME280;50547;49.498;0.092;2023-09-19T07:05:43;1055.65;;;17.03;82.27
64230;BME280;50547;49.498;0.092;2023-09-19T07:08:12;1055.68;;;17.04;82.51
64230;BME280;50547;49.498;0.092;2023-09-19T07:10:42;1055.71;;;17.06;82.37
64230;BME280;50547;49.498;0.092;2023-09-19T07:13:11;1055.74;;;17.08;81.87
64230;BME280;50547;49.498;0.092;2023-09-19T07:15:40;1055.71;;;17.07;82.38
64230;BME280;50547;49.498;0.092;2023-09-19T07:18:09;1055.71;;;17.07;81.87
64230;BME280;50547;49.498;0.092;2023-09-19T07:20:38;1055.74;;;17.08;82.65
64230;BME280;50547;49.498;0.092;2023-09-19T07:23:07;1055.74;;;17.08;82.39
64230;BME280;50547;49.498;0.092;2023-09-19T07:25:36;1055.71;;;17.07;81.95
64230;BME280;50547;49.498;0.092;2023-09-19T07:28:05;1055.71;;;17.06;82.43
64230;BME280;50547;49.498;0.092;2023-09-19T07:30:36;1055.68;;;17.06;82.43
64230;BME280;50547;49.498;0.092;2023-09-19T07:33:06;1055.68;;;17.05;82.66
64230;BME280;50547;49.498;0.092;2023-09-19T07:35:35;1055.68;;;17.05;82.34
64230;BME280;50547;49.498;0.092;2023-09-19T07:38:04;1055.68;;;17.05;83.05
64230;BME280;50547;49.498;0.092;2023-09-19T07:40:35;1055.68;;;17.04;82.64
64230;BME280;50547;49.498;0.092;2023-09-19T07:43:04;1055.65;;;17.04;83.21
64230;BME280;50547;49.498;0.092;2023-09-19T07:45:33;1055.65;;;17.03;83.28
64230;BME280;50547;49.498;0.092;2023-09-19T07:48:03;1055.71;;;17.07;83.55
64230;BME280;50547;49.498;0.092;2023-09-19T07:50:34;1055.74;;;17.08;82.85
64230;BME280;50547;49.498;0.092;2023-09-19T07:53:03;1055.77;;;17.11;82.91
64230;BME280;50547;49.498;0.092;2023-09-19T07:55:47;1055.83;;;17.13;82.89
64230;BME280;50547;49.498;0.092;2023-09-19T07:58:16;1055.89;;;17.19;82.69
64230;BME280;50547;49.498;0.092;2023-09-19T08:00:45;1056.07;;;17.28;82.40
64230;BME280;50547;49.498;0.092;2023-09-19T08:03:19;1056.17;;;17.33;80.91
64230;BME280;50547;49.498;0.092;2023-09-19T08:05:49;1056.26;;;17.40;80.98
64230;BME280;50547;49.498;0.092;2023-09-19T08:08:18;1056.34;;;17.44;81.70
64230;BME280;50547;49.498;0.092;2023-09-19T08:10:44;1056.37;;;17.46;80.87
64230;BME280;50547;49.498;0.092;2023-09-19T08:13:14;1056.43;;;17.48;81.28
64230;BME280;50547;49.498;0.092;2023-09-19T08:15:43;1056.46;;;17.51;81.82
64230;BME280;50547;49.498;0.092;2023-09-19T08:18:18;1056.53;;;17.55;80.76
64230;BME280;50547;49.498;0.092;2023-09-19T08:20:51;1056.62;;;17.61;80.56
64230;BME280;50547;49.498;0.092;2023-09-19T08:23:20;1056.71;;;17.64;80.26
64230;BME280;50547;49.498;0.092;2023-09-19T08:25:50;1056.79;;;17.71;80.33
64230;BME280;50547;49.498;0.092;2023-09-19T08:28:24;1056.89;;;17.76;79.74
64230;BME280;50547;49.498;0.092;2023-09-19T08:30:53;1057.11;;;17.83;80.28
64230;BME280;50547;49.498;0.092;2023-09-19T08:33:23;1057.14;;;17.87;79.23
64230;BME280;50547;49.498;0.092;2023-09-19T08:35:52;1057.23;;;17.93;80.39
64230;BME280;50547;49.498;0.092;2023-09-19T08:38:21;1057.30;;;17.95;79.65
64230;BME280;50547;49.498;0.092;2023-09-19T08:40:50;1057.36;;;18.01;79.69
64230;BME280;50547;49.498;0.092;2023-09-19T08:43:21;1057.47;;;18.05;79.92
64230;BME280;50547;49.498;0.092;2023-09-19T08:45:52;1057.56;;;18.11;80.12
64230;BME280;50547;49.498;0.092;2023-09-19T08:48:26;1057.59;;;18.13;79.76
64230;BME280;50547;49.498;0.092;2023-09-19T08:51:00;1057.66;;;18.17;80.20
64230;BME280;50547;49.498;0.092;2023-09-19T08:53:36;1057.69;;;18.20;79.69
64230;BME280;50547;49.498;0.092;2023-09-19T08:56:10;1057.75;;;18.23;79.69
64230;BME280;50547;49.498;0.092;2023-09-19T08:58:45;1057.75;;;18.23;79.33
64230;BME280;50547;49.498;0.092;2023-09-19T09:01:15;1057.78;;;18.25;79.61
64230;BME280;50547;49.498;0.092;2023-09-19T09:03:46;1057.86;;;18.30;79.79
64230;BME280;50547;49.498;0.092;2023-09-19T09:06:17;1058.02;;;18.38;78.35
64230;BME280;50547;49.498;0.092;2023-09-19T09:08:46;1058.05;;;18.41;78.40
64230;BME280;50547;49.498;0.092;2023-09-19T09:11:16;1058.15;;;18.47;78.60
64230;BME280;50547;49.498;0.092;2023-09-19T09:13:45;1058.24;;;18.51;78.89
64230;BME280;50547;49.498;0.092;2023-09-19T09:16:20;1058.35;;;18.58;79.32
64230;BME280;50547;49.498;0.092;2023-09-19T09:18:49;1058.44;;;18.63;79.17
64230;BME280;50547;49.498;0.092;2023-09-19T09:21:18;1058.44;;;18.65;78.48
64230;BME280;50547;49.498;0.092;2023-09-19T09:23:54;1058.48;;;18.66;78.69
64230;BME280;50547;49.498;0.092;2023-09-19T09:26:41;1058.54;;;18.70;78.29
64230;BME280;50547;49.498;0.092;2023-09-19T09:29:13;1058.63;;;18.73;78.67
64230;BME280;50547;49.498;0.092;2023-09-19T09:31:43;1058.66;;;18.76;78.23
64230;BME280;50547;49.498;0.092;2023-09-19T09:34:12;1058.71;;;18.79;77.75
64230;BME280;50547;49.498;0.092;2023-09-19T09:36:42;1058.77;;;18.83;78.43
64230;BME280;50547;49.498;0.092;2023-09-19T09:39:30;1058.84;;;18.87;77.87
64230;BME280;50547;49.498;0.092;2023-09-19T09:41:59;1058.96;;;18.93;77.91
64230;BME280;50547;49.498;0.092;2023-09-19T09:44:28;1059.02;;;18.97;76.82
64230;BME280;50547;49.498;0.092;2023-09-19T09:46:57;1059.09;;;19.01;76.19
64230;BME280;50547;49.498;0.092;2023-09-19T09:49:27;1059.15;;;19.04;76.91
64230;BME280;50547;49.498;0.092;2023-09-19T09:52:01;1059.20;;;19.09;76.64
64230;BME280;50547;49.498;0.092;2023-09-19T09:54:32;1059.23;;;19.11;76.51
64230;BME280;50547;49.498;0.092;2023-09-19T09:57:02;1059.32;;;19.15;76.01
64230;BME280;50547;49.498;0.092;2023-09-19T09:59:49;1059.38;;;19.18;76.08
64230;BME280;50547;49.498;0.092;2023-09-19T10:02:19;1059.45;;;19.23;76.29
64230;BME280;50547;49.498;0.092;2023-09-19T10:04:49;1059.58;;;19.27;74.84
64230;BME280;50547;49.498;0.092;2023-09-19T10:07:27;1059.67;;;19.32;74.98
64230;BME280;50547;49.498;0.092;2023-09-19T10:09:56;1059.79;;;19.38;74.18
64230;BME280;50547;49.498;0.092;2023-09-19T10:12:27;1059.88;;;19.43;75.50
64230;BME280;50547;49.498;0.092;2023-09-19T10:14:59;1059.91;;;19.46;73.97
64230;BME280;50547;49.498;0.092;2023-09-19T10:17:29;1059.94;;;19.48;75.20
64230;BME280;50547;49.498;0.092;2023-09-19T10:20:01;1060.01;;;19.52;74.10
64230;BME280;50547;49.498;0.092;2023-09-19T10:22:31;1060.07;;;19.55;75.39
64230;BME280;50547;49.498;0.092;2023-09-19T10:25:05;1060.07;;;19.56;75.71
64230;BME280;50547;49.498;0.092;2023-09-19T10:27:36;1060.13;;;19.57;74.65
64230;BME280;50547;49.498;0.092;2023-09-19T10:30:07;1060.16;;;19.60;74.35
64230;BME280;50547;49.498;0.092;2023-09-19T10:32:39;1060.19;;;19.61;74.40
64230;BME280;50547;49.498;0.092;2023-09-19T10:35:11;1060.22;;;19.63;74.37
64230;BME280;50547;49.498;0.092;2023-09-19T10:37:40;1060.25;;;19.65;74.01
64230;BME280;50547;49.498;0.092;2023-09-19T10:40:14;1060.31;;;19.69;74.07
64230;BME280;50547;49.498;0.092;2023-09-19T10:42:46;1060.34;;;19.71;73.44
64230;BME280;50547;49.498;0.092;2023-09-19T10:45:17;1060.37;;;19.72;72.91
64230;BME280;50547;49.498;0.092;2023-09-19T10:47:46;1060.40;;;19.74;73.50
64230;BME280;50547;49.498;0.092;2023-09-19T10:50:19;1060.40;;;19.74;72.88
64230;BME280;50547;49.498;0.092;2023-09-19T10:52:55;1060.40;;;19.75;73.19
64230;BME280;50547;49.498;0.092;2023-09-19T10:55:24;1060.40;;;19.74;73.02
64230;BME280;50547;49.498;0.092;2023-09-19T10:57:59;1060.43;;;19.76;74.35
64230;BME280;50547;49.498;0.092;2023-09-19T11:00:30;1060.43;;;19.76;73.65
64230;BME280;50547;49.498;0.092;2023-09-19T11:03:31;1060.52;;;19.80;74.24
64230;BME280;50547;49.498;0.092;2023-09-19T11:06:02;1060.62;;;19.86;72.72
64230;BME280;50547;49.498;0.092;2023-09-19T11:08:51;1060.65;;;19.88;74.15
64230;BME280;50547;49.498;0.092;2023-09-19T11:11:53;1060.71;;;19.91;73.62
64230;BME280;50547;49.498;0.092;2023-09-19T11:14:37;1060.73;;;19.94;72.65
64230;BME280;50547;49.498;0.092;2023-09-19T11:17:39;1060.85;;;20.01;73.74
64230;BME280;50547;49.498;0.092;2023-09-19T11:20:25;1060.98;;;20.09;74.20
64230;BME280;50547;49.498;0.092;2023-09-19T11:23:31;1061.10;;;20.15;73.57
64230;BME280;50547;49.498;0.092;2023-09-19T11:26:00;1061.25;;;20.23;72.24
64230;BME280;50547;49.498;0.092;2023-09-19T11:28:30;1061.31;;;20.28;71.63
64230;BME280;50547;49.498;0.092;2023-09-19T11:31:41;1061.50;;;20.40;72.04
64230;BME280;50547;49.498;0.092;2023-09-19T11:35:16;1061.61;;;20.44;70.85
64230;BME280;50547;49.498;0.092;2023-09-19T11:37:59;1061.59;;;20.43;71.09
64230;BME280;50547;49.498;0.092;2023-09-19T11:40:29;1061.50;;;20.39;72.95
64230;BME280;50547;49.498;0.092;2023-09-19T11:42:58;1061.47;;;20.37;72.16
64230;BME280;50547;49.498;0.092;2023-09-19T11:46:16;1061.44;;;20.36;71.86
64230;BME280;50547;49.498;0.092;2023-09-19T11:48:43;1061.44;;;20.35;72.23
64230;BME280;50547;49.498;0.092;2023-09-19T11:51:14;1061.44;;;20.35;73.49
64230;BME280;50547;49.498;0.092;2023-09-19T11:53:45;1061.44;;;20.35;72.10
64230;BME280;50547;49.498;0.092;2023-09-19T11:56:16;1061.41;;;20.33;72.39
64230;BME280;50547;49.498;0.092;2023-09-19T11:58:45;1061.41;;;20.33;72.14
64230;BME280;50547;49.498;0.092;2023-09-19T12:01:22;1061.41;;;20.33;71.92
64230;BME280;50547;49.498;0.092;2023-09-19T12:03:53;1061.38;;;20.32;72.80
64230;BME280;50547;49.498;0.092;2023-09-19T12:06:23;1061.37;;;20.31;72.67
64230;BME280;50547;49.498;0.092;2023-09-19T12:08:53;1061.38;;;20.32;72.22
64230;BME280;50547;49.498;0.092;2023-09-19T12:11:23;1061.41;;;20.34;72.88
64230;BME280;50547;49.498;0.092;2023-09-19T12:13:54;1061.44;;;20.35;72.76
64230;BME280;50547;49.498;0.092;2023-09-19T12:16:24;1061.47;;;20.37;73.24
64230;BME280;50547;49.498;0.092;2023-09-19T12:18:53;1061.44;;;20.36;71.97
64230;BME280;50547;49.498;0.092;2023-09-19T12:21:25;1061.44;;;20.35;73.73
64230;BME280;50547;49.498;0.092;2023-09-19T12:24:12;1061.47;;;20.37;73.70
64230;BME280;50547;49.498;0.092;2023-09-19T12:26:43;1061.53;;;20.41;73.27
64230;BME280;50547;49.498;0.092;2023-09-19T12:29:14;1061.65;;;20.47;73.05
64230;BME280;50547;49.498;0.092;2023-09-19T12:31:52;1061.71;;;20.50;71.01
64230;BME280;50547;49.498;0.092;2023-09-19T12:34:23;1061.80;;;20.56;71.99
64230;BME280;50547;49.498;0.092;2023-09-19T12:37:10;1061.90;;;20.62;71.09
64230;BME280;50547;49.498;0.092;2023-09-19T12:39:40;1062.15;;;20.72;69.39
64230;BME280;50547;49.498;0.092;2023-09-19T12:42:10;1062.30;;;20.81;69.30
64230;BME280;50547;49.498;0.092;2023-09-19T12:44:41;1062.39;;;20.87;69.88
64230;BME280;50547;49.498;0.092;2023-09-19T12:47:12;1062.45;;;20.90;69.90
64230;BME280;50547;49.498;0.092;2023-09-19T12:50:19;1062.45;;;20.91;69.78
64230;BME280;50547;49.498;0.092;2023-09-19T12:52:49;1062.49;;;20.92;71.36
64230;BME280;50547;49.498;0.092;2023-09-19T12:55:21;1062.49;;;20.93;70.53
64230;BME280;50547;49.498;0.092;2023-09-19T12:58:23;1062.49;;;20.92;70.71
64230;BME280;50547;49.498;0.092;2023-09-19T13:00:52;1062.49;;;20.92;71.57
64230;BME280;50547;49.498;0.092;2023-09-19T13:03:26;1062.45;;;20.90;72.42
64230;BME280;50547;49.498;0.092;2023-09-19T13:05:56;1062.42;;;20.87;72.84
64230;BME280;50547;49.498;0.092;2023-09-19T13:08:27;1062.33;;;20.84;71.93
64230;BME280;50547;49.498;0.092;2023-09-19T13:11:03;1062.30;;;20.82;71.99
64230;BME280;50547;49.498;0.092;2023-09-19T13:13:33;1062.25;;;20.79;72.33
64230;BME280;50547;49.498;0.092;2023-09-19T13:16:02;1062.28;;;20.80;73.33
64230;BME280;50547;49.498;0.092;2023-09-19T13:18:31;1062.28;;;20.80;72.33
64230;BME280;50547;49.498;0.092;2023-09-19T13:21:08;1062.22;;;20.77;71.01
64230;BME280;50547;49.498;0.092;2023-09-19T13:23:38;1062.21;;;20.76;72.30
64230;BME280;50547;49.498;0.092;2023-09-19T13:26:12;1062.22;;;20.77;72.75
64230;BME280;50547;49.498;0.092;2023-09-19T13:28:41;1062.22;;;20.77;72.31
64230;BME280;50547;49.498;0.092;2023-09-19T13:31:10;1062.25;;;20.78;72.32
64230;BME280;50547;49.498;0.092;2023-09-19T13:33:43;1062.25;;;20.79;72.39